Latest Weather Observations for Willis Island

IDQ60801

Issued at 5:02 am EST Monday 9 December 2019 (issued every 10 minutes, with the page automatically refreshed every 10 minutes)

About weather observations | Map of weather stations | Latest weather observations for QLD | Other Formats
Station Details ID: 200283 Name: WILLIS ISLAND Lat: -16.29 Lon: 149.97 Height: 9.29 m
Data from the previous 72 hours. | See also: Recent months at Willis Island
Date/Time
EST
Temp
°C
App
Temp
°C
Dew
Point
°C
Rel
Hum
%
Delta-T
°C
Wind Press
QNH
hPa
Press
MSL
hPa
Rain since
9am
mm
Dir  Spd
km/h
Gust
km/h
Spd
kts
Gust
kts
09/05:00am 26.6 25.5 22.9 80 2.5 ESE 33 39 18 21 1012.1 1012.0 0.0
09/04:30am 26.5 25.6 22.8 80 2.5 ESE 32 35 17 19 1011.8 1011.7 0.0
09/04:00am 26.4 25.8 22.7 80 2.5 ESE 30 35 16 19 1011.9 1011.8 0.0
09/03:30am 26.4 25.3 22.5 79 2.6 ESE 32 37 17 20 1011.7 1011.6 0.0
09/03:00am 26.4 26.1 22.5 79 2.6 ESE 28 32 15 17 1011.8 1011.7 0.0
09/02:30am 26.5 25.7 22.3 78 2.8 ESE 30 33 16 18 1012.0 1011.9 0.0
09/02:00am 26.4 26.5 22.5 79 2.6 ESE 26 30 14 16 1012.3 1012.2 0.0
09/01:30am 26.3 26.2 22.2 78 2.8 ESE 26 30 14 16 1012.4 1012.3 0.0
09/01:00am 26.5 26.4 22.3 78 2.8 ESE 26 32 14 17 1012.7 1012.6 0.0
09/12:30am 26.3 26.4 21.9 77 2.9 ESE 24 30 13 16 1013.1 1013.0 0.0
09/12:00am 26.3 25.7 21.3 74 3.3 ESE 26 32 14 17 1013.5 1013.4 0.0
 
Date/Time
EST
Temp
°C
App
Temp
°C
Dew
Point
°C
Rel
Hum
%
Delta-T
°C
Wind Press
QNH
hPa
Press
MSL
hPa
Rain since
9am
mm
Dir  Spd
km/h
Gust
km/h
Spd
kts
Gust
kts
08/11:30pm 26.4 25.9 21.4 74 3.3 ESE 26 30 14 16 1013.9 1013.8 0.0
08/11:00pm 26.4 26.0 21.6 75 3.2 ESE 26 28 14 15 1014.2 1014.1 0.0
08/10:30pm 26.5 25.5 21.3 73 3.4 ESE 28 33 15 18 1014.3 1014.2 0.0
08/10:00pm 26.4 26.0 20.9 72 3.6 ESE 24 30 13 16 1014.3 1014.2 0.0
08/09:30pm 26.4 25.4 20.5 70 3.9 ESE 26 30 14 16 1014.4 1014.3 0.0
08/09:00pm 26.5 25.8 20.3 68 4.1 ESE 24 28 13 15 1014.5 1014.4 0.0
08/08:30pm 26.5 25.5 19.6 66 4.5 ESE 24 32 13 17 1014.3 1014.2 0.0
08/08:00pm 26.5 25.6 19.9 67 4.3 ESE 24 28 13 15 1014.3 1014.2 0.0
08/07:30pm 26.6 25.2 19.7 66 4.5 ESE 26 30 14 16 1014.1 1014.0 0.0
08/07:00pm 26.7 25.8 19.8 66 4.5 ESE 24 28 13 15 1013.8 1013.7 0.0
08/06:30pm 26.8 25.5 19.9 66 4.5 ESE 26 28 14 15 1013.5 1013.4 0.0
08/06:00pm 27.2 25.9 19.8 64 4.8 ESE 26 32 14 17 1013.3 1013.2 0.0
08/05:30pm 27.5 26.2 19.8 63 5.0 ESE 26 30 14 16 1013.0 1012.9 0.0
08/05:00pm 28.0 26.5 20.3 63 5.1 ESE 28 32 15 17 1012.8 1012.7 0.0
08/04:30pm 28.2 26.7 20.2 62 5.3 ESE 28 33 15 18 1012.5 1012.4 0.0
08/04:00pm 28.9 28.1 20.9 62 5.3 ESE 26 30 14 16 1012.2 1012.1 0.0
08/03:30pm 29.6 28.7 20.7 58 5.9 ESE 26 28 14 15 1012.1 1012.0 0.0
08/03:00pm 29.6 29.0 20.5 58 6.0 ESE 24 26 13 14 1011.9 1011.8 0.0
08/02:30pm 29.6 29.2 21.0 60 5.7 E 24 28 13 15 1011.8 1011.7 0.0
08/02:00pm 29.4 28.2 20.8 60 5.7 E 28 30 15 16 1012.1 1012.0 0.0
08/01:30pm 29.2 27.9 20.6 59 5.7 E 28 33 15 18 1012.3 1012.2 0.0
08/01:00pm 30.0 29.1 21.4 60 5.8 E 28 32 15 17 1012.4 1012.3 0.0
08/12:30pm 29.8 29.0 20.9 59 5.9 ESE 26 32 14 17 1012.4 1012.3 0.0
08/12:00pm 30.0 29.3 21.1 59 5.9 ESE 26 30 14 16 1012.6 1012.5 0.0
08/11:30am 30.6 31.0 22.5 62 5.5 ESE 24 30 13 16 1013.1 1013.0 0.0
08/11:00am 30.1 29.9 22.0 62 5.5 E 26 32 14 17 1013.2 1013.1 0.0
08/10:30am 29.3 28.8 21.5 63 5.2 E 26 32 14 17 1013.5 1013.4 0.0
08/10:00am 29.2 28.8 21.7 64 5.0 E 26 30 14 16 1013.5 1013.4 0.0
08/09:30am 29.3 29.4 21.8 64 5.0 E 24 28 13 15 1013.6 1013.5 0.0
08/09:00am 28.8 28.9 21.8 66 4.7 E 24 28 13 15 1013.4 1013.3 0.0
08/08:30am 28.3 28.3 21.6 67 4.5 E 24 28 13 15 1013.4 1013.3 0.0
08/08:00am 27.9 27.0 21.4 67 4.3 E 28 30 15 16 1013.0 1012.9 0.0
08/07:30am 27.5 26.9 22.0 72 3.7 E 28 32 15 17 1012.7 1012.6 0.0
08/07:00am 27.2 26.8 21.7 72 3.7 E 26 30 14 16 1012.3 1012.2 0.0
08/06:30am 27.0 26.5 22.2 75 3.2 E 28 32 15 17 1012.0 1011.9 0.0
08/06:00am 26.4 25.3 21.8 76 3.1 E 30 33 16 18 1011.9 1011.8 0.0
08/05:30am 26.1 25.6 21.5 76 3.1 E 26 28 14 15 1011.6 1011.5 0.0
08/05:00am 26.1 25.6 21.5 76 3.1 E 26 30 14 16 1011.3 1011.2 0.0
08/04:30am 25.9 25.6 21.1 75 3.2 E 24 28 13 15 1011.0 1010.9 0.0
08/04:00am 26.1 25.0 21.1 74 3.3 E 28 32 15 17 1010.9 1010.8 0.0
08/03:30am 26.0 24.9 21.0 74 3.3 E 28 32 15 17 1010.8 1010.7 0.0
08/03:00am 26.1 25.1 21.3 75 3.2 E 28 35 15 19 1010.8 1010.7 0.0
08/02:30am 26.2 25.1 21.8 77 2.9 ESE 30 35 16 19 1011.1 1011.0 0.0
08/02:00am 26.2 24.8 21.2 74 3.3 E 30 33 16 18 1011.3 1011.2 0.0
08/01:30am 26.2 24.9 21.4 75 3.2 E 30 35 16 19 1011.5 1011.4 0.0
08/01:00am 26.1 25.0 21.1 74 3.3 E 28 33 15 18 1011.8 1011.7 0.0
08/12:30am 26.5 25.3 21.5 74 3.3 E 30 33 16 18 1012.2 1012.1 0.0
08/12:00am 26.5 25.5 21.9 76 3.1 ESE 30 35 16 19 1012.7 1012.6 0.0
 
Date/Time
EST
Temp
°C
App
Temp
°C
Dew
Point
°C
Rel
Hum
%
Delta-T
°C
Wind Press
QNH
hPa
Press
MSL
hPa
Rain since
9am
mm
Dir  Spd
km/h
Gust
km/h
Spd
kts
Gust
kts
07/11:30pm 26.4 24.7 21.4 74 3.3 E 32 35 17 19 1013.0 1012.9 0.0
07/11:00pm 26.6 24.8 21.1 72 3.6 E 32 39 17 21 1013.3 1013.2 0.0
07/10:30pm 26.5 24.6 21.0 72 3.6 E 32 37 17 20 1013.5 1013.4 0.0
07/10:00pm 26.6 24.8 21.1 72 3.6 ESE 32 37 17 20 1013.4 1013.3 0.0
07/09:30pm 26.7 25.1 21.5 73 3.5 E 32 35 17 19 1013.3 1013.2 0.0
07/09:00pm 26.8 25.4 21.1 71 3.8 E 30 32 16 17 1013.2 1013.1 0.0
07/08:30pm 26.8 25.8 21.3 72 3.7 ESE 28 33 15 18 1012.9 1012.8 0.0
07/08:00pm 26.8 25.7 21.1 71 3.8 ESE 28 33 15 18 1012.7 1012.6 0.0
07/07:30pm 26.6 25.4 20.9 71 3.8 ESE 28 32 15 17 1012.4 1012.3 0.0
07/07:00pm 26.8 26.2 21.3 72 3.7 ESE 26 30 14 16 1012.2 1012.1 0.0
07/06:30pm 26.7 25.6 21.0 71 3.8 ESE 28 32 15 17 1011.8 1011.7 0.0
07/06:00pm 27.1 26.5 21.2 70 3.9 ESE 26 32 14 17 1011.5 1011.4 0.0
07/05:30pm 27.8 27.6 21.3 67 4.3 ESE 24 28 13 15 1011.1 1011.0 0.0
07/05:00pm 28.2 27.7 20.7 63 5.0 ESE 24 28 13 15 1010.8 1010.7 0.0
07/04:30pm 28.4 27.9 20.7 63 5.1 ESE 24 28 13 15 1010.6 1010.5 0.0
07/04:00pm 29.0 28.6 21.0 62 5.3 ESE 24 28 13 15 1010.3 1010.2 0.0
07/03:30pm 29.3 28.9 21.0 61 5.5 ESE 24 30 13 16 1010.3 1010.2 0.0
07/03:00pm 29.9 30.3 21.0 59 5.9 ESE 20 24 11 13 1010.4 1010.3 0.0
07/02:30pm 29.9 29.8 20.7 57 6.1 ESE 22 26 12 14 1010.5 1010.4 0.0
07/02:00pm 30.3 30.2 20.8 56 6.3 ESE 22 28 12 15 1010.7 1010.6 0.0
07/01:30pm 30.3 30.2 20.8 56 6.3 ESE 22 28 12 15 1010.9 1010.8 0.0
07/01:00pm 30.3 30.1 20.5 55 6.5 ESE 22 26 12 14 1011.5 1011.4 0.0
07/12:30pm 30.5 30.4 20.7 55 6.5 ESE 22 26 12 14 1011.8 1011.7 0.0
07/12:00pm 30.7 30.6 21.5 58 6.2 ESE 24 28 13 15 1012.1 1012.0 0.0
07/11:30am 30.0 29.3 20.3 56 6.4 E 24 28 13 15 1012.3 1012.2 0.0
07/11:00am 29.8 29.2 20.4 57 6.2 E 24 30 13 16 1012.8 1012.7 0.0
07/10:30am 29.4 28.6 20.0 57 6.2 E 24 30 13 16 1013.0 1012.9 0.0
07/10:00am 29.5 29.2 20.4 58 6.0 ESE 22 26 12 14 1013.3 1013.2 0.0
07/09:30am 29.2 28.5 19.5 56 6.3 ESE 22 26 12 14 1013.5 1013.4 0.0
07/09:00am 29.2 29.0 20.6 59 5.7 ESE 22 26 12 14 1013.4 1013.3 0.0
07/08:30am 29.4 29.3 20.0 57 6.2 ESE 20 24 11 13 1013.3 1013.2 0.0
07/08:00am 28.8 28.9 20.3 60 5.6 ESE 20 24 11 13 1013.1 1013.0 0.0
07/07:30am 28.1 28.1 20.1 62 5.2 ESE 20 24 11 13 1013.0 1012.9 0.0
07/07:00am 27.6 27.5 19.9 63 5.0 ESE 20 26 11 14 1012.6 1012.5 0.0
07/06:30am 26.4 26.5 20.0 68 4.2 ESE 19 24 10 13 1012.4 1012.3 0.0
07/06:00am 26.1 26.2 20.0 69 4.0 ESE 19 20 10 11 1012.1 1012.0 0.0
07/05:30am 25.8 26.0 19.4 67 4.1 ESE 17 20 9 11 1011.9 1011.8 0.0
07/05:00am 26.0 26.2 20.1 70 3.8 ESE 19 22 10 12 1011.6 1011.5 0.0
07/04:30am 25.9 26.2 19.5 68 4.1 ESE 17 22 9 12 1011.3 1011.2 0.0
07/04:00am 26.0 26.2 19.4 67 4.3 E 17 22 9 12 1011.2 1011.1 0.0
07/03:30am 26.1 25.5 18.8 64 4.7 E 20 24 11 13 1011.0 1010.9 0.0
07/03:00am 26.1 25.5 19.7 68 4.1 E 22 26 12 14 1010.9 1010.8 0.0
07/02:30am 26.1 25.4 19.5 67 4.3 E 22 26 12 14 1011.1 1011.0 0.0
07/02:00am 26.2 25.9 20.3 70 3.9 E 22 26 12 14 1011.2 1011.1 0.0
07/01:30am 26.2 26.2 20.1 69 4.0 E 20 24 11 13 1011.5 1011.4 0.0
07/01:00am 26.2 25.9 19.6 67 4.3 E 20 24 11 13 1011.8 1011.7 0.0
07/12:30am 26.4 26.5 20.3 69 4.0 ESE 20 24 11 13 1012.2 1012.1 0.0
07/12:00am 26.3 25.9 20.2 69 4.0 E 22 26 12 14 1012.5 1012.4 0.0
 
Date/Time
EST
Temp
°C
App
Temp
°C
Dew
Point
°C
Rel
Hum
%
Delta-T
°C
Wind Press
QNH
hPa
Press
MSL
hPa
Rain since
9am
mm
Dir  Spd
km/h
Gust
km/h
Spd
kts
Gust
kts
06/11:30pm 26.7 26.8 21.2 72 3.6 ESE 22 24 12 13 1012.7 1012.6 0.0
06/11:00pm 26.4 26.9 20.9 72 3.6 E 19 22 10 12 1013.1 1013.0 0.0
06/10:30pm 26.6 26.8 21.4 73 3.5 E 22 26 12 14 1013.3 1013.2 0.0
06/10:00pm 26.5 27.0 20.8 71 3.8 E 19 24 10 13 1013.3 1013.2 0.0
06/09:30pm 26.6 27.8 21.4 73 3.5 E 17 20 9 11 1013.1 1013.0 0.0
06/09:00pm 26.7 27.8 21.2 72 3.6 E 17 20 9 11 1012.9 1012.8 0.0
06/08:30pm 26.9 27.7 21.4 72 3.7 E 19 20 10 11 1012.8 1012.7 0.0
06/08:00pm 26.9 28.0 21.2 71 3.8 E 17 19 9 10 1012.5 1012.4 0.0
06/07:30pm 27.0 28.0 21.1 70 3.9 E 17 19 9 10 1012.1 1012.0 0.0
06/07:00pm 27.0 28.0 21.1 70 3.9 E 17 20 9 11 1011.9 1011.8 0.0
06/06:30pm 27.2 28.1 20.8 68 4.2 E 17 19 9 10 1011.6 1011.5 0.0
06/06:00pm 27.9 29.4 21.2 67 4.5 E 15 19 8 10 1011.3 1011.2 0.0
06/05:30pm 28.5 29.8 20.2 60 5.5 E 13 17 7 9 1011.2 1011.1 0.0
06/05:00pm 28.9 30.7 21.1 62 5.2 E 13 15 7 8 1010.8 1010.7 0.0
06/04:30pm 28.7 30.2 21.2 64 5.0 E 15 19 8 10 1010.6 1010.5 0.0
06/04:00pm 30.0 31.6 20.8 57 6.1 E 13 17 7 9 1010.6 1010.5 0.0
06/03:30pm 29.3 31.2 20.5 59 5.8 E 11 15 6 8 1010.7 1010.6 0.0
06/03:00pm 29.5 32.1 21.2 61 5.5 E 9 13 5 7 1010.7 1010.6 0.0
06/02:30pm 30.3 32.8 21.1 58 6.1 E 9 13 5 7 1010.8 1010.7 0.0
06/02:00pm 30.4 32.2 20.3 54 6.7 E 11 13 6 7 1011.0 1010.9 0.0
06/01:30pm 30.0 31.6 20.0 55 6.6 E 11 13 6 7 1011.2 1011.1 0.0
06/01:00pm 30.1 32.0 20.6 56 6.3 E 11 13 6 7 1011.4 1011.3 0.0
06/12:30pm 30.2 31.9 20.2 55 6.6 E 11 13 6 7 1011.7 1011.6 0.0
06/12:00pm 30.3 32.5 21.1 58 6.2 E 11 17 6 9 1012.0 1011.9 0.0
06/11:30am 30.2 31.9 21.0 58 6.1 E 13 17 7 9 1012.3 1012.2 0.0
06/11:00am 29.6 30.8 20.7 58 5.9 E 15 17 8 9 1012.4 1012.3 0.0
06/10:30am 30.0 31.7 21.7 61 5.6 E 15 19 8 10 1012.6 1012.5 0.0
06/10:00am 29.9 31.3 21.8 62 5.5 E 17 19 9 10 1012.6 1012.5 0.0
06/09:30am 29.9 31.7 21.8 62 5.5 E 15 17 8 9 1012.8 1012.7 0.0
06/09:00am 29.6 31.0 21.8 63 5.3 E 17 19 9 10 1012.8 1012.7 0.0
06/08:30am 29.6 31.2 22.1 64 5.1 E 17 20 9 11 1012.6 1012.5 0.0
06/08:00am 28.9 30.1 22.2 67 4.5 E 19 20 10 11 1012.6 1012.5 0.0
06/07:30am 28.3 29.3 21.8 68 4.4 E 19 20 10 11 1012.3 1012.2 0.0
06/07:00am 27.6 28.5 21.6 70 4.0 E 19 22 10 12 1011.9 1011.8 0.0
06/06:30am 27.3 28.0 22.3 74 3.4 E 22 26 12 14 1011.9 1011.8 0.0
06/06:00am 26.9 27.2 22.3 76 3.1 E 24 30 13 16 1011.6 1011.5 0.0
06/05:30am 26.6 27.1 22.7 79 2.6 E 24 28 13 15 1011.1 1011.0 0.0

Other formats

Comma delimited format used in spreadsheet applications
http://www.bom.gov.au/fwo/IDQ60801/IDQ60801.94299.axf

JavaScript Object Notation format (JSON) in row-major order
http://www.bom.gov.au/fwo/IDQ60801/IDQ60801.94299.json

Data quality

Most of these data are generated automatically and are frequently updated. Quality checks on data are not normally performed. It is possible for incorrect values to appear. Refer to information at About Latest Weather Observations and please check the disclaimer before using these data.